Time;durP1;ratioP1;P1;durP2;ratioP2;P2;SDS_P1;SDS_P2;PMS_P1;PMS_P2;Temp;Humidity;BMP_temperature;BMP_pressure;BME280_temperature;BME280_humidity;BME280_pressure;Samples;Min_cycle;Max_cycle;Signal;HPM_P1;HPM_P2
2023/02/23 00:01:48;;;;;;;;;;;;;;;15.72;46.53;100986.28;4997177;28;1066;-37
2023/02/23 00:04:13;;;;;;;;;;;;;;;17.34;42.55;100982.09;4996768;28;1104;-40
2023/02/23 00:06:39;;;;;;;;;;;;;;;16.57;44.29;100975.25;4997846;28;1060;-36
2023/02/23 00:09:07;;;;;;;;;;;;;;;15.96;45.87;100981.25;4997550;28;1009;-37
2023/02/23 00:11:33;;;;;;;;;;;;;;;15.64;46.46;100979.38;4997361;28;1081;-44
2023/02/23 00:14:00;;;;;;;;;;;;;;;15.48;47.03;100974.84;4997171;28;1906;-38
2023/02/23 00:16:25;;;;;;;;;;;;;;;15.60;46.60;100978.25;4997053;28;1096;-36
2023/02/23 00:18:52;;;;;;;;;;;;;;;17.25;42.89;100973.53;4997028;28;1084;-36
2023/02/23 00:21:18;;;;;;;;;;;;;;;16.69;43.83;100977.78;4997265;28;1207;-39
2023/02/23 00:23:51;;;;;;;;;;;;;;;16.01;45.81;100978.56;4997429;28;1069;-38
2023/02/23 00:26:19;;;;;;;;;;;;;;;15.67;46.29;100978.84;4996620;28;1116;-36
2023/02/23 00:28:45;;;;;;;;;;;;;;;15.50;46.95;100973.50;4997245;28;1076;-37
2023/02/23 00:31:11;;;;;;;;;;;;;;;15.89;46.02;100975.19;4997408;28;1076;-37
2023/02/23 00:33:36;;;;;;;;;;;;;;;17.33;42.56;100967.50;4996712;28;1906;-39
2023/02/23 00:36:09;;;;;;;;;;;;;;;16.24;45.01;100971.00;4996646;28;1017;-44
2023/02/23 00:38:35;;;;;;;;;;;;;;;15.73;46.36;100958.59;5012139;28;1096;-38
2023/02/23 00:41:05;;;;;;;;;;;;;;;15.52;46.65;100968.56;4996525;28;1137;-38
2023/02/23 00:43:37;;;;;;;;;;;;;;;15.85;46.17;100974.91;4996398;28;1128;-42
2023/02/23 00:46:05;;;;;;;;;;;;;;;17.47;42.44;100962.28;4996534;28;1096;-39
2023/02/23 00:48:31;;;;;;;;;;;;;;;16.46;44.53;100954.34;4979347;28;1108;-39
2023/02/23 00:51:01;;;;;;;;;;;;;;;15.96;45.59;100947.53;4979220;28;1610;-38
2023/02/23 00:53:26;;;;;;;;;;;;;;;15.64;46.57;100954.69;4996755;28;981;-36
2023/02/23 00:55:52;;;;;;;;;;;;;;;15.40;47.06;100957.81;4996360;28;1906;-42
2023/02/23 00:58:18;;;;;;;;;;;;;;;16.97;43.65;100961.13;4998339;28;1044;-41
2023/02/23 01:00:44;;;;;;;;;;;;;;;17.00;43.08;100961.44;4985947;28;1323;-38
2023/02/23 01:03:09;;;;;;;;;;;;;;;16.13;45.36;100956.41;5003069;28;1141;-41
2023/02/23 01:05:34;;;;;;;;;;;;;;;15.79;46.36;100966.84;4996432;28;1503;-37
2023/02/23 01:08:00;;;;;;;;;;;;;;;15.60;46.50;100958.22;5001683;28;1133;-39
2023/02/23 01:10:25;;;;;;;;;;;;;;;16.06;45.59;100953.91;4985697;28;1415;-40
2023/02/23 01:12:51;;;;;;;;;;;;;;;17.41;42.30;100947.72;4985716;28;1497;-40
2023/02/23 01:15:17;;;;;;;;;;;;;;;16.38;44.86;100950.22;5010037;28;1969;-42
2023/02/23 01:17:42;;;;;;;;;;;;;;;15.95;45.87;100946.72;5001193;28;1069;-39
2023/02/23 01:20:18;;;;;;;;;;;;;;;15.62;46.53;100939.59;5003163;28;1133;-37
2023/02/23 01:22:45;;;;;;;;;;;;;;;15.45;47.05;100937.81;4985723;28;1378;-43
2023/02/23 01:25:11;;;;;;;;;;;;;;;15.40;47.22;100944.09;5002689;28;1010;-38
2023/02/23 01:27:37;;;;;;;;;;;;;;;17.09;43.26;100932.28;4985188;28;1092;-41
2023/02/23 01:30:08;;;;;;;;;;;;;;;16.84;43.48;100945.97;4985530;28;1131;-41
2023/02/23 01:32:36;;;;;;;;;;;;;;;16.08;45.55;100939.91;5018001;28;1302;-43
2023/02/23 01:35:03;;;;;;;;;;;;;;;15.72;46.19;100934.19;5002978;28;1977;-36
2023/02/23 01:37:29;;;;;;;;;;;;;;;15.47;46.70;100932.09;5002802;28;1056;-42
2023/02/23 01:39:54;;;;;;;;;;;;;;;15.46;47.17;100924.94;4984968;28;1491;-36
2023/02/23 01:42:21;;;;;;;;;;;;;;;17.15;43.17;100927.63;5003279;28;1144;-40
2023/02/23 01:44:47;;;;;;;;;;;;;;;16.54;44.43;100931.06;5002694;28;996;-38
2023/02/23 01:47:13;;;;;;;;;;;;;;;15.94;45.63;100931.34;5002531;28;1118;-38
2023/02/23 01:49:39;;;;;;;;;;;;;;;15.62;46.60;100932.19;5003384;28;1290;-38
2023/02/23 01:52:09;;;;;;;;;;;;;;;15.44;47.16;100929.88;4985031;28;874;-41
2023/02/23 01:54:39;;;;;;;;;;;;;;;15.69;46.72;100940.19;5017496;28;1902;-38
2023/02/23 01:57:04;;;;;;;;;;;;;;;17.31;42.63;100944.97;5002812;28;1064;-40
2023/02/23 01:59:36;;;;;;;;;;;;;;;16.41;44.39;100938.72;5001144;28;1223;-40
2023/02/23 02:02:06;;;;;;;;;;;;;;;15.87;45.81;100942.53;5017785;28;1179;-37
2023/02/23 02:04:44;;;;;;;;;;;;;;;15.57;46.75;100940.38;4985060;28;847;-37
2023/02/23 02:07:13;;;;;;;;;;;;;;;15.49;46.81;100943.63;5002925;28;1115;-40
2023/02/23 02:09:39;;;;;;;;;;;;;;;17.20;42.86;100943.31;5001105;28;1141;-39
2023/02/23 02:12:07;;;;;;;;;;;;;;;16.75;43.52;100949.25;4999311;28;1073;-40
2023/02/23 02:14:32;;;;;;;;;;;;;;;16.05;45.30;100949.50;4999663;28;1911;-43
2023/02/23 02:17:19;;;;;;;;;;;;;;;15.71;46.37;100947.06;5014479;28;1001;-42
2023/02/23 02:19:49;;;;;;;;;;;;;;;15.63;46.43;100950.31;4988362;28;1522;-44
2023/02/23 02:22:15;;;;;;;;;;;;;;;17.32;42.71;100954.03;4981760;28;1084;-47
2023/02/23 02:24:40;;;;;;;;;;;;;;;16.63;44.18;100958.81;4999227;28;1105;-41
2023/02/23 02:27:05;;;;;;;;;;;;;;;16.02;45.44;100958.28;4981726;28;1200;-43
2023/02/23 02:30:08;;;;;;;;;;;;;;;15.73;46.17;100963.25;4999310;28;1018;-43
2023/02/23 02:32:35;;;;;;;;;;;;;;;15.50;46.70;100953.47;4987975;28;1061;-43
2023/02/23 02:35:04;;;;;;;;;;;;;;;17.20;42.93;100948.81;4999316;28;1902;-44
2023/02/23 02:37:32;;;;;;;;;;;;;;;16.82;43.55;100956.41;4999108;28;1165;-42
2023/02/23 02:40:14;;;;;;;;;;;;;;;16.13;45.28;100963.81;4998767;28;997;-39
2023/02/23 02:42:53;;;;;;;;;;;;;;;15.80;45.92;100968.56;5013569;28;1255;-42
2023/02/23 02:45:22;;;;;;;;;;;;;;;15.53;46.58;100970.25;5014034;28;1164;-43
2023/02/23 02:48:00;;;;;;;;;;;;;;;15.39;47.02;100971.78;4981331;28;1313;-45
2023/02/23 02:50:30;;;;;;;;;;;;;;;16.78;43.91;100969.84;4981200;28;1013;-41
2023/02/23 02:53:06;;;;;;;;;;;;;;;16.85;43.58;100964.91;4993745;28;1217;-38
2023/02/23 02:55:33;;;;;;;;;;;;;;;16.02;45.42;100980.22;4993001;28;1910;-43
2023/02/23 02:58:01;;;;;;;;;;;;;;;15.69;46.20;100975.84;4981368;28;1124;-40
2023/02/23 04:18:48;;;;;;;;;;;;;;;16.31;45.11;101011.91;4997406;28;1165;-56
2023/02/23 04:21:14;;;;;;;;;;;;;;;17.52;42.02;101011.78;4997402;28;1088;-53
2023/02/23 04:23:39;;;;;;;;;;;;;;;16.42;44.73;101019.97;4996674;28;1048;-52
2023/02/23 04:26:05;;;;;;;;;;;;;;;15.92;45.72;101013.03;4997006;28;1229;-55
2023/02/23 04:28:30;;;;;;;;;;;;;;;15.72;46.17;101020.03;4997133;28;1152;-55
2023/02/23 04:30:55;;;;;;;;;;;;;;;15.51;46.61;101016.25;4996974;28;1139;-47
2023/02/23 04:33:21;;;;;;;;;;;;;;;15.39;47.05;101015.63;4996296;28;1033;-46
2023/02/23 04:35:46;;;;;;;;;;;;;;;16.45;44.52;101020.50;4997139;28;1912;-51
2023/02/23 04:38:12;;;;;;;;;;;;;;;17.32;42.62;101025.50;4996814;28;1033;-60
2023/02/23 04:40:37;;;;;;;;;;;;;;;16.23;44.80;101025.06;4996967;28;984;-56
2023/02/23 04:43:03;;;;;;;;;;;;;;;15.83;45.76;101026.41;4996597;28;1150;-55
2023/02/23 04:45:28;;;;;;;;;;;;;;;15.60;46.39;101032.22;4996775;28;1024;-49
2023/02/23 04:47:53;;;;;;;;;;;;;;;15.45;46.72;101027.44;4996993;28;1088;-51
2023/02/23 04:50:19;;;;;;;;;;;;;;;16.41;44.60;101029.28;4996814;28;1096;-56
2023/02/23 04:52:44;;;;;;;;;;;;;;;17.60;41.84;101030.47;4995316;28;1324;-45
2023/02/23 04:55:14;;;;;;;;;;;;;;;16.49;44.21;101030.69;4996349;28;1975;-53
2023/02/23 04:57:40;;;;;;;;;;;;;;;15.99;45.59;101030.13;4996788;28;898;-56
2023/02/23 05:00:05;;;;;;;;;;;;;;;15.76;46.00;101035.94;4995982;28;1305;-53
2023/02/23 05:02:31;;;;;;;;;;;;;;;15.55;46.42;101030.28;4997051;28;1287;-54
2023/02/23 05:04:56;;;;;;;;;;;;;;;15.57;46.66;101034.41;5010550;28;1322;-55
2023/02/23 05:07:22;;;;;;;;;;;;;;;17.18;42.77;101041.69;4996675;28;1111;-54
2023/02/23 05:09:47;;;;;;;;;;;;;;;16.65;43.89;101047.22;5009652;28;1077;-55
2023/02/23 05:12:13;;;;;;;;;;;;;;;16.04;45.38;101045.78;4996923;28;1236;-54
2023/02/23 05:14:38;;;;;;;;;;;;;;;16.72;44.18;101053.31;4995806;28;2033;-54
2023/02/23 05:17:04;;;;;;;;;;;;;;;17.07;42.99;101049.91;4995026;28;1048;-55
2023/02/23 05:19:29;;;;;;;;;;;;;;;16.27;44.92;101051.97;4996791;28;1060;-53
2023/02/23 05:21:55;;;;;;;;;;;;;;;15.98;45.67;101058.63;4996628;28;1247;-54
2023/02/23 05:24:20;;;;;;;;;;;;;;;15.74;46.23;101058.13;4996331;28;1072;-53
2023/02/23 05:26:46;;;;;;;;;;;;;;;15.56;46.87;101062.09;4996277;28;1155;-50
2023/02/23 05:29:12;;;;;;;;;;;;;;;15.39;47.37;101070.41;4996443;28;1107;-55
2023/02/23 05:31:37;;;;;;;;;;;;;;;15.25;47.38;101063.66;5011904;28;1211;-57
2023/02/23 05:34:03;;;;;;;;;;;;;;;16.83;43.79;101079.72;4996271;28;1906;-57
2023/02/23 05:36:28;;;;;;;;;;;;;;;16.84;43.55;101078.63;4996355;28;1139;-58
2023/02/23 05:38:54;;;;;;;;;;;;;;;15.99;45.65;101079.50;4996679;28;1131;-57
2023/02/23 05:41:20;;;;;;;;;;;;;;;15.70;46.32;101092.63;4995792;28;1124;-57
2023/02/23 05:43:46;;;;;;;;;;;;;;;15.50;46.87;101088.63;4996310;28;1148;-58
2023/02/23 05:46:13;;;;;;;;;;;;;;;15.36;47.07;101087.34;4998459;28;1156;-58
2023/02/23 05:48:39;;;;;;;;;;;;;;;16.76;43.98;101088.22;5015218;28;1088;-58
2023/02/23 05:51:04;;;;;;;;;;;;;;;16.64;44.13;101095.81;5000387;28;1135;-58
2023/02/23 05:53:30;;;;;;;;;;;;;;;15.91;45.52;101088.19;5000013;28;1212;-58
2023/02/23 05:55:56;;;;;;;;;;;;;;;15.65;46.26;101098.06;5000193;28;1979;-58
2023/02/23 05:58:21;;;;;;;;;;;;;;;15.47;46.68;101102.00;5000080;28;1180;-58
2023/02/23 06:00:47;;;;;;;;;;;;;;;15.60;46.55;101108.97;4999748;28;1092;-58
2023/02/23 06:03:13;;;;;;;;;;;;;;;17.20;42.78;101111.75;4999705;28;1160;-57
2023/02/23 06:05:38;;;;;;;;;;;;;;;16.57;43.83;101114.47;4999320;28;1039;-52
2023/02/23 06:08:04;;;;;;;;;;;;;;;15.93;45.77;101107.13;4999773;28;1179;-53
2023/02/23 06:10:29;;;;;;;;;;;;;;;15.70;46.25;101122.78;4998998;28;1187;-50
2023/02/23 06:12:55;;;;;;;;;;;;;;;15.51;46.74;101117.66;4999419;28;989;-57
2023/02/23 06:15:20;;;;;;;;;;;;;;;16.12;45.63;101124.00;4999577;28;1903;-56
2023/02/23 06:17:46;;;;;;;;;;;;;;;16.17;45.21;101129.53;4997398;28;1432;-57
2023/02/23 06:20:11;;;;;;;;;;;;;;;15.99;45.73;101120.63;4999603;28;1384;-55
2023/02/23 06:22:37;;;;;;;;;;;;;;;17.67;41.56;101120.97;4999396;28;1152;-56
2023/02/23 06:25:03;;;;;;;;;;;;;;;16.16;45.11;101131.47;4999313;28;1183;-54
2023/02/23 06:27:29;;;;;;;;;;;;;;;15.60;46.12;101128.16;4998712;28;1087;-59
2023/02/23 06:29:54;;;;;;;;;;;;;;;16.65;44.26;101127.69;4998774;28;944;-54
2023/02/23 06:32:20;;;;;;;;;;;;;;;16.22;45.04;101132.34;4998794;28;1160;-56
2023/02/23 06:34:48;;;;;;;;;;;;;;;15.65;45.85;101131.78;4980585;28;1906;-62
2023/02/23 06:37:13;;;;;;;;;;;;;;;17.19;42.94;101142.25;4980545;28;1235;-66
2023/02/23 06:39:39;;;;;;;;;;;;;;;16.01;45.31;101153.28;4998196;28;1072;-58
2023/02/23 06:42:04;;;;;;;;;;;;;;;17.59;42.20;101149.00;4998633;28;1036;-63
2023/02/23 06:44:29;;;;;;;;;;;;;;;16.99;43.38;101151.25;4998452;28;1045;-59
2023/02/23 06:46:56;;;;;;;;;;;;;;;16.15;45.26;101149.00;4998858;28;1173;-63
2023/02/23 06:49:22;;;;;;;;;;;;;;;16.04;45.35;101155.50;4998782;28;1089;-59
2023/02/23 06:51:47;;;;;;;;;;;;;;;16.74;43.79;101158.22;4999304;28;1180;-53
2023/02/23 06:54:12;;;;;;;;;;;;;;;16.07;45.11;101164.03;4999002;28;1910;-57
2023/02/23 06:56:38;;;;;;;;;;;;;;;17.93;41.50;101162.28;4997804;28;1192;-55
2023/02/23 06:59:03;;;;;;;;;;;;;;;16.76;44.11;101162.34;4999182;28;1108;-55
2023/02/23 07:01:29;;;;;;;;;;;;;;;16.20;45.05;101150.97;4999110;28;1107;-58
2023/02/23 07:03:54;;;;;;;;;;;;;;;17.12;43.50;101164.50;4998578;28;1128;-53
2023/02/23 07:06:19;;;;;;;;;;;;;;;16.54;44.55;101167.16;4998941;28;1029;-50
2023/02/23 07:08:45;;;;;;;;;;;;;;;16.91;43.79;101166.31;4998681;28;1069;-53
2023/02/23 07:11:12;;;;;;;;;;;;;;;17.81;41.56;101169.94;4998800;28;1188;-55
2023/02/23 07:13:38;;;;;;;;;;;;;;;16.72;44.00;101176.91;5014009;28;1132;-54
2023/02/23 07:16:03;;;;;;;;;;;;;;;16.76;44.42;101178.84;4998630;28;1982;-55
2023/02/23 07:18:29;;;;;;;;;;;;;;;16.77;43.87;101183.25;4998951;28;915;-62
2023/02/23 07:20:54;;;;;;;;;;;;;;;17.96;41.76;101175.50;4998136;28;1187;-58
2023/02/23 07:23:21;;;;;;;;;;;;;;;18.60;40.10;101173.28;4998371;28;1192;-60
2023/02/23 07:25:49;;;;;;;;;;;;;;;17.19;43.18;101169.75;4997900;28;1207;-58
2023/02/23 07:28:14;;;;;;;;;;;;;;;16.69;44.21;101170.00;4998028;28;1342;-56
2023/02/23 07:30:39;;;;;;;;;;;;;;;16.39;44.24;101176.91;4998091;28;1247;-60
2023/02/23 07:33:05;;;;;;;;;;;;;;;17.56;42.32;101171.53;4996936;28;1299;-58
2023/02/23 07:35:30;;;;;;;;;;;;;;;16.57;44.27;101174.84;4997831;28;1910;-58
2023/02/23 07:37:56;;;;;;;;;;;;;;;16.91;44.19;101175.41;4997041;28;1192;-56
2023/02/23 07:40:21;;;;;;;;;;;;;;;17.10;43.19;101170.25;4997271;28;1208;-58
2023/02/23 07:42:47;;;;;;;;;;;;;;;16.46;44.55;101175.88;4997583;28;1215;-58
2023/02/23 07:45:12;;;;;;;;;;;;;;;16.13;44.88;101175.03;5013078;28;1345;-58
2023/02/23 07:47:38;;;;;;;;;;;;;;;16.55;44.59;101174.28;4997301;28;1322;-61
2023/02/23 07:50:08;;;;;;;;;;;;;;;16.71;44.23;101173.31;4997710;28;1200;-54
2023/02/23 07:52:34;;;;;;;;;;;;;;;16.12;45.08;101184.34;4997956;28;1129;-54
2023/02/23 07:55:00;;;;;;;;;;;;;;;16.96;44.00;101182.81;4997415;28;1918;-52
2023/02/23 07:57:25;;;;;;;;;;;;;;;16.77;44.24;101194.22;4998310;28;1117;-55
2023/02/23 07:59:51;;;;;;;;;;;;;;;16.29;45.53;101196.03;4997996;28;1119;-54
2023/02/23 08:02:16;;;;;;;;;;;;;;;18.17;41.05;101189.28;4997606;28;1044;-53
2023/02/23 08:04:42;;;;;;;;;;;;;;;16.84;43.98;101193.97;4997644;28;1139;-53
2023/02/23 08:07:08;;;;;;;;;;;;;;;16.38;44.71;101210.13;4997228;28;936;-54
2023/02/23 08:09:34;;;;;;;;;;;;;;;16.63;44.32;101197.69;4997212;28;1084;-56
2023/02/23 08:12:00;;;;;;;;;;;;;;;17.05;43.68;101205.94;4997488;28;1188;-57
2023/02/23 08:14:25;;;;;;;;;;;;;;;16.41;44.91;101209.59;4997194;28;1910;-52
2023/02/23 08:16:51;;;;;;;;;;;;;;;16.43;44.89;101212.91;4997247;28;1195;-53
2023/02/23 08:19:16;;;;;;;;;;;;;;;17.17;43.30;101202.19;4997314;28;846;-55
2023/02/23 08:21:42;;;;;;;;;;;;;;;16.41;44.95;101212.31;4997611;28;1129;-56
2023/02/23 08:24:07;;;;;;;;;;;;;;;18.15;41.31;101219.00;4997428;28;1143;-55
2023/02/23 08:26:34;;;;;;;;;;;;;;;17.08;43.45;101221.91;4997709;28;1139;-55
2023/02/23 08:28:59;;;;;;;;;;;;;;;16.41;44.72;101217.81;4997399;28;1076;-57
2023/02/23 08:31:26;;;;;;;;;;;;;;;17.39;43.02;101222.06;4997103;28;879;-56
2023/02/23 08:33:51;;;;;;;;;;;;;;;16.68;44.16;101228.75;4996840;28;1910;-53
2023/02/23 08:36:17;;;;;;;;;;;;;;;16.28;44.94;101227.31;4997344;28;1131;-52
2023/02/23 08:38:42;;;;;;;;;;;;;;;17.43;42.87;101227.84;5012355;28;1386;-56
2023/02/23 08:41:08;;;;;;;;;;;;;;;16.43;44.82;101237.63;4997651;28;1044;-54
2023/02/23 08:43:33;;;;;;;;;;;;;;;16.53;44.71;101231.38;4997060;28;1053;-54
2023/02/23 08:45:59;;;;;;;;;;;;;;;16.92;43.99;101233.91;4997173;28;1111;-53
2023/02/23 08:48:25;;;;;;;;;;;;;;;16.29;44.79;101226.22;4996636;28;1123;-53
2023/02/23 08:50:54;;;;;;;;;;;;;;;17.67;42.33;101228.22;4997449;28;1072;-55
2023/02/23 08:53:21;;;;;;;;;;;;;;;16.62;44.24;101234.47;4997136;28;1120;-55
2023/02/23 08:55:47;;;;;;;;;;;;;;;16.41;45.14;101237.88;4996550;28;1910;-55
2023/02/23 08:58:12;;;;;;;;;;;;;;;16.97;43.61;101231.19;4996655;28;1072;-55
2023/02/23 09:00:38;;;;;;;;;;;;;;;16.46;44.72;101248.06;4996849;28;1033;-53
2023/02/23 09:03:04;;;;;;;;;;;;;;;17.99;41.55;101251.97;4996573;28;1067;-57
2023/02/23 09:05:30;;;;;;;;;;;;;;;16.89;43.83;101248.16;4997041;28;1041;-58
2023/02/23 09:07:55;;;;;;;;;;;;;;;16.42;44.63;101252.41;4996577;28;1012;-53
2023/02/23 09:10:23;;;;;;;;;;;;;;;16.84;44.29;101254.41;4996345;28;1228;-54
2023/02/23 09:12:49;;;;;;;;;;;;;;;16.55;44.70;101256.63;4996760;28;1056;-55
2023/02/23 09:15:14;;;;;;;;;;;;;;;17.09;43.79;101262.00;4997029;28;1902;-55
2023/02/23 09:17:43;;;;;;;;;;;;;;;17.99;41.38;101257.47;4996644;28;1135;-51
2023/02/23 09:20:12;;;;;;;;;;;;;;;16.80;43.88;101260.69;4999255;28;1104;-51
2023/02/23 09:22:38;;;;;;;;;;;;;;;17.09;43.48;101262.00;5001152;28;1140;-52
2023/02/23 09:25:04;;;;;;;;;;;;;;;16.86;43.83;101259.66;5000486;28;1243;-52
2023/02/23 09:27:29;;;;;;;;;;;;;;;16.50;44.39;101275.84;5000595;28;1121;-58
2023/02/23 09:29:55;;;;;;;;;;;;;;;16.38;44.67;101286.97;5000710;28;1140;-56
2023/02/23 09:32:20;;;;;;;;;;;;;;;17.02;43.44;101269.66;5000204;28;1119;-58
2023/02/23 09:34:47;;;;;;;;;;;;;;;16.41;44.62;101281.78;5000645;28;1902;-58
2023/02/23 09:37:13;;;;;;;;;;;;;;;16.19;44.89;101275.53;5000603;28;1096;-55
2023/02/23 09:39:38;;;;;;;;;;;;;;;17.13;43.23;101284.31;5000418;28;1167;-55
2023/02/23 09:42:10;;;;;;;;;;;;;;;16.42;44.54;101279.88;5000290;28;1155;-53
2023/02/23 09:44:40;;;;;;;;;;;;;;;16.58;44.76;101280.84;5000149;28;1228;-53
2023/02/23 09:47:29;;;;;;;;;;;;;;;16.66;44.17;101272.13;5015394;28;1040;-56
2023/02/23 09:49:55;;;;;;;;;;;;;;;16.15;45.06;101282.63;4997647;28;1271;-53
2023/02/23 09:52:22;;;;;;;;;;;;;;;17.23;42.94;101283.53;5015581;28;1207;-56
2023/02/23 09:54:48;;;;;;;;;;;;;;;16.37;44.79;101291.63;4999696;28;1985;-55
2023/02/23 09:57:15;;;;;;;;;;;;;;;16.45;44.80;101284.00;5000342;28;1103;-55
2023/02/23 09:59:41;;;;;;;;;;;;;;;17.19;43.20;101293.41;5015340;28;1163;-55
2023/02/23 10:02:13;;;;;;;;;;;;;;;16.35;44.74;101288.31;5000323;28;1109;-55
2023/02/23 10:04:42;;;;;;;;;;;;;;;18.29;40.86;101297.19;5015215;28;1144;-55
2023/02/23 10:07:11;;;;;;;;;;;;;;;17.00;43.73;101296.59;5014968;28;1043;-55
2023/02/23 10:09:42;;;;;;;;;;;;;;;16.54;44.36;101298.94;5000007;28;1184;-56
2023/02/23 10:12:17;;;;;;;;;;;;;;;17.60;42.38;101294.47;5000389;28;1064;-59
2023/02/23 10:15:02;;;;;;;;;;;;;;;16.60;44.16;101292.38;4987237;28;1921;-57
2023/02/23 10:17:46;;;;;;;;;;;;;;;17.44;42.77;101290.81;5000228;28;1068;-57
2023/02/23 10:20:17;;;;;;;;;;;;;;;16.72;43.89;101301.28;4999304;28;1024;-56
2023/02/23 10:22:42;;;;;;;;;;;;;;;16.33;44.53;101290.50;5014871;28;1098;-56
2023/02/23 10:25:24;;;;;;;;;;;;;;;16.88;43.85;101299.50;4999653;28;1081;-57
2023/02/23 10:27:50;;;;;;;;;;;;;;;16.45;44.45;101293.06;5003610;28;1124;-57
2023/02/23 10:30:16;;;;;;;;;;;;;;;16.88;43.95;101295.91;4998724;28;1553;-56
2023/02/23 10:32:47;;;;;;;;;;;;;;;17.51;42.35;101290.56;4998671;28;1088;-56
2023/02/23 10:35:18;;;;;;;;;;;;;;;16.60;44.29;101292.38;5014508;28;1906;-56
2023/02/23 10:37:44;;;;;;;;;;;;;;;16.64;44.50;101287.22;4999364;28;1139;-57
2023/02/23 10:40:13;;;;;;;;;;;;;;;17.05;43.57;101293.03;4999689;28;1103;-57
2023/02/23 10:42:39;;;;;;;;;;;;;;;16.39;44.73;101286.69;5014591;28;1211;-58
2023/02/23 10:45:05;;;;;;;;;;;;;;;18.08;41.21;101286.13;4998466;28;1108;-58
2023/02/23 10:47:31;;;;;;;;;;;;;;;16.84;43.81;101303.84;4998955;28;1125;-59
2023/02/23 10:49:57;;;;;;;;;;;;;;;16.38;44.52;101290.56;5014381;28;1110;-58
2023/02/23 10:52:22;;;;;;;;;;;;;;;17.46;42.71;101293.31;4998994;28;1145;-55
2023/02/23 10:54:48;;;;;;;;;;;;;;;16.66;44.18;101301.50;4998714;28;1981;-54
2023/02/23 10:57:28;;;;;;;;;;;;;;;17.22;43.21;101295.63;4999215;28;1068;-54
2023/02/23 11:00:01;;;;;;;;;;;;;;;17.46;42.36;101293.31;4998445;28;1173;-54
2023/02/23 11:02:26;;;;;;;;;;;;;;;16.68;44.23;101305.63;4998515;28;1144;-56
2023/02/23 11:04:53;;;;;;;;;;;;;;;16.47;44.40;101296.38;5013220;28;1318;-55
2023/02/23 11:07:22;;;;;;;;;;;;;;;16.26;44.49;101300.84;4998194;28;1295;-54
2023/02/23 11:09:50;;;;;;;;;;;;;;;16.99;43.70;101294.94;4998944;28;1243;-53
2023/02/23 11:12:23;;;;;;;;;;;;;;;17.41;43.00;101296.84;4998208;28;1001;-50
2023/02/23 11:14:52;;;;;;;;;;;;;;;18.95;39.53;101295.59;4997913;28;1969;-54
2023/02/23 11:17:28;;;;;;;;;;;;;;;17.33;43.01;101288.28;4998594;28;1074;-54
2023/02/23 11:20:26;;;;;;;;;;;;;;;16.71;44.15;101302.38;5013071;28;958;-54
2023/02/23 11:22:51;;;;;;;;;;;;;;;16.51;44.24;101300.28;4986245;28;1358;-52
2023/02/23 11:25:25;;;;;;;;;;;;;;;16.36;44.25;101302.88;4998560;28;1107;-54
2023/02/23 11:27:52;;;;;;;;;;;;;;;17.42;42.50;101304.00;4996979;28;1040;-53
2023/02/23 11:30:20;;;;;;;;;;;;;;;16.48;44.52;101294.47;4998128;28;1076;-48
2023/02/23 11:32:49;;;;;;;;;;;;;;;16.21;44.80;101295.31;5013109;28;1461;-55
2023/02/23 11:35:20;;;;;;;;;;;;;;;16.99;43.54;101303.16;4998551;28;1964;-52
2023/02/23 11:37:46;;;;;;;;;;;;;;;16.37;44.84;101297.13;4998013;28;1221;-55
2023/02/23 11:40:17;;;;;;;;;;;;;;;16.21;44.62;101300.78;4998037;28;1005;-54
2023/02/23 11:42:49;;;;;;;;;;;;;;;17.56;42.41;101309.03;4998554;28;1204;-55
2023/02/23 11:45:15;;;;;;;;;;;;;;;16.49;44.53;101304.38;4998016;28;1029;-53
2023/02/23 11:47:43;;;;;;;;;;;;;;;17.36;43.23;101313.31;4997579;28;1029;-54
2023/02/23 11:50:18;;;;;;;;;;;;;;;16.89;43.94;101308.59;4997317;28;1322;-55
2023/02/23 11:52:44;;;;;;;;;;;;;;;16.44;44.56;101310.63;4997529;28;1274;-54
2023/02/23 11:55:10;;;;;;;;;;;;;;;16.56;44.73;101304.97;4997184;28;1967;-55
2023/02/23 11:57:36;;;;;;;;;;;;;;;16.89;43.79;101314.09;5012787;28;1302;-55
2023/02/23 12:00:07;;;;;;;;;;;;;;;16.36;44.86;101314.66;4997123;28;1302;-54
2023/02/23 12:02:57;;;;;;;;;;;;;;;18.11;41.05;101312.28;5011955;28;1337;-52
2023/02/23 12:05:27;;;;;;;;;;;;;;;16.73;44.16;101308.44;4998021;28;1204;-53
2023/02/23 12:07:57;;;;;;;;;;;;;;;16.45;44.58;101314.22;5011919;28;1254;-53
2023/02/23 12:10:24;;;;;;;;;;;;;;;16.24;44.53;101306.59;5013108;28;1235;-56
2023/02/23 12:12:52;;;;;;;;;;;;;;;17.41;42.76;101307.84;5012895;28;1122;-55
2023/02/23 12:15:36;;;;;;;;;;;;;;;16.48;44.94;101316.41;4997438;28;1910;-54
2023/02/23 12:18:14;;;;;;;;;;;;;;;16.22;44.61;101303.28;4997885;28;1117;-57
2023/02/23 12:20:40;;;;;;;;;;;;;;;16.87;44.10;101313.47;4997274;28;1125;-53
2023/02/23 12:23:11;;;;;;;;;;;;;;;16.23;45.02;101309.59;5012334;28;1064;-49
2023/02/23 12:25:39;;;;;;;;;;;;;;;16.87;44.30;101313.47;4998059;28;1223;-51
2023/02/23 12:28:11;;;;;;;;;;;;;;;16.57;44.72;101306.63;4997126;28;1119;-49
2023/02/23 12:30:39;;;;;;;;;;;;;;;16.13;44.99;101304.84;4984615;28;1029;-49
2023/02/23 12:33:07;;;;;;;;;;;;;;;17.14;43.25;101315.34;4996855;28;1029;-55
2023/02/23 12:35:48;;;;;;;;;;;;;;;16.48;44.87;101316.41;4996912;28;1911;-54
2023/02/23 12:38:35;;;;;;;;;;;;;;;18.39;40.66;101322.00;4979456;28;1153;-55
2023/02/23 12:41:05;;;;;;;;;;;;;;;17.14;43.08;101315.34;5012258;28;1055;-53
2023/02/23 12:43:31;;;;;;;;;;;;;;;16.59;44.43;101335.50;5016476;28;1141;-56
2023/02/23 12:46:09;;;;;;;;;;;;;;;16.36;44.57;101331.13;4997158;28;1135;-57
2023/02/23 12:48:43;;;;;;;;;;;;;;;17.76;42.33;101336.63;4997193;28;1164;-54
2023/02/23 12:51:13;;;;;;;;;;;;;;;16.80;44.02;101329.34;4997153;28;1036;-55
2023/02/23 12:53:40;;;;;;;;;;;;;;;16.31;44.88;101338.50;5012277;28;1234;-56
2023/02/23 12:56:12;;;;;;;;;;;;;;;16.18;44.50;101335.06;4996276;28;1960;-54
2023/02/23 12:58:50;;;;;;;;;;;;;;;16.27;44.52;101349.16;5011247;28;1195;-54
2023/02/23 13:01:17;;;;;;;;;;;;;;;16.72;44.41;101339.72;4984674;28;1113;-53
2023/02/23 13:03:45;;;;;;;;;;;;;;;17.86;42.29;101330.31;5012235;28;1203;-54
2023/02/23 13:06:15;;;;;;;;;;;;;;;18.90;39.52;101326.75;4996635;28;1056;-44
2023/02/23 13:08:52;;;;;;;;;;;;;;;17.14;43.41;101326.34;5011920;28;954;-47
2023/02/23 13:11:27;;;;;;;;;;;;;;;16.79;44.14;101327.69;5012100;28;1064;-51
2023/02/23 13:13:58;;;;;;;;;;;;;;;17.63;42.50;101348.13;4996633;28;1212;-50
2023/02/23 13:16:34;;;;;;;;;;;;;;;16.77;44.12;101347.19;4996603;28;2054;-50
2023/02/23 13:19:00;;;;;;;;;;;;;;;17.27;43.31;101350.63;5011407;28;1044;-50
2023/02/23 13:21:44;;;;;;;;;;;;;;;17.14;43.42;101326.34;4995871;28;922;-52
2023/02/23 13:24:17;;;;;;;;;;;;;;;16.60;44.26;101339.06;4997213;28;1180;-55
2023/02/23 13:26:49;;;;;;;;;;;;;;;17.35;43.38;101346.53;5011732;28;1056;-51
2023/02/23 13:29:24;;;;;;;;;;;;;;;17.09;43.51;101349.13;4996277;28;1049;-49
2023/02/23 13:31:49;;;;;;;;;;;;;;;16.42;44.84;101352.06;4984638;28;1232;-51
2023/02/23 13:34:35;;;;;;;;;;;;;;;16.40;44.69;101353.41;5011530;28;1969;-55
2023/02/23 13:37:02;;;;;;;;;;;;;;;16.84;43.92;101347.78;4996260;28;1827;-54
2023/02/23 13:39:52;;;;;;;;;;;;;;;16.43;44.89;101348.22;5011663;28;1115;-54
2023/02/23 13:42:26;;;;;;;;;;;;;;;16.30;44.85;101345.06;4996244;28;1044;-55
2023/02/23 13:44:58;;;;;;;;;;;;;;;17.40;42.80;101352.94;5001261;28;1117;-52
2023/02/23 13:47:31;;;;;;;;;;;;;;;16.46;44.75;101359.78;4996516;28;1564;-52
2023/02/23 13:50:14;;;;;;;;;;;;;;;16.16;44.77;101363.84;5011344;28;1103;-55
2023/02/23 13:52:40;;;;;;;;;;;;;;;17.61;42.65;101350.28;4996308;28;1060;-51
2023/02/23 13:55:26;;;;;;;;;;;;;;;16.79;44.40;101382.63;4996531;28;1910;-54
2023/02/23 13:57:52;;;;;;;;;;;;;;;16.81;44.60;101366.72;4992278;28;1323;-51
2023/02/23 14:00:20;;;;;;;;;;;;;;;17.25;43.31;101370.13;4996033;28;1234;-54
2023/02/23 14:02:46;;;;;;;;;;;;;;;16.49;44.77;101356.53;5011242;28;1418;-52
2023/02/23 14:05:18;;;;;;;;;;;;;;;18.11;41.32;101373.66;5011465;28;1088;-51
2023/02/23 14:07:44;;;;;;;;;;;;;;;16.96;43.82;101372.38;4998640;28;1143;-55
2023/02/23 14:10:23;;;;;;;;;;;;;;;16.52;44.51;101369.72;5015274;28;947;-54
2023/02/23 14:13:07;;;;;;;;;;;;;;;17.53;42.65;101372.78;5014948;28;1064;-54